sensor_id;sensor_type;location;lat;lon;timestamp;temperature;humidity
26262;DHT22;13988;52.446;13.280;2022-09-09T00:04:31;14.40;99.90
26262;DHT22;13988;52.446;13.280;2022-09-09T00:07:21;14.40;99.90
26262;DHT22;13988;52.446;13.280;2022-09-09T00:15:12;14.20;99.90
26262;DHT22;13988;52.446;13.280;2022-09-09T00:17:53;14.20;99.90
26262;DHT22;13988;52.446;13.280;2022-09-09T00:20:28;14.20;99.90
26262;DHT22;13988;52.446;13.280;2022-09-09T00:23:08;14.20;99.90
26262;DHT22;13988;52.446;13.280;2022-09-09T00:25:54;14.10;99.90
26262;DHT22;13988;52.446;13.280;2022-09-09T00:28:23;14.10;99.90
26262;DHT22;13988;52.446;13.280;2022-09-09T00:30:50;14.00;99.90
26262;DHT22;13988;52.446;13.280;2022-09-09T00:33:18;14.10;99.90
26262;DHT22;13988;52.446;13.280;2022-09-09T00:35:49;14.10;99.90
26262;DHT22;13988;52.446;13.280;2022-09-09T00:38:35;14.10;99.90
26262;DHT22;13988;52.446;13.280;2022-09-09T00:41:13;14.20;99.90
26262;DHT22;13988;52.446;13.280;2022-09-09T00:43:41;14.10;99.90
26262;DHT22;13988;52.446;13.280;2022-09-09T00:57:27;13.80;99.90
26262;DHT22;13988;52.446;13.280;2022-09-09T01:02:53;13.90;99.90
26262;DHT22;13988;52.446;13.280;2022-09-09T01:05:28;13.90;99.90
26262;DHT22;13988;52.446;13.280;2022-09-09T01:07:54;13.90;99.90
26262;DHT22;13988;52.446;13.280;2022-09-09T01:10:32;13.90;99.90
26262;DHT22;13988;52.446;13.280;2022-09-09T01:13:05;14.00;99.90
26262;DHT22;13988;52.446;13.280;2022-09-09T01:15:34;13.80;99.90
26262;DHT22;13988;52.446;13.280;2022-09-09T01:20:44;13.90;99.90
26262;DHT22;13988;52.446;13.280;2022-09-09T01:26:04;13.70;99.90
26262;DHT22;13988;52.446;13.280;2022-09-09T01:28:34;13.60;99.90
26262;DHT22;13988;52.446;13.280;2022-09-09T01:31:03;13.60;99.90
26262;DHT22;13988;52.446;13.280;2022-09-09T01:33:29;13.60;99.90
26262;DHT22;13988;52.446;13.280;2022-09-09T01:36:12;13.60;99.90
26262;DHT22;13988;52.446;13.280;2022-09-09T01:38:39;13.70;99.90
26262;DHT22;13988;52.446;13.280;2022-09-09T01:41:05;13.70;99.90
26262;DHT22;13988;52.446;13.280;2022-09-09T01:43:31;13.70;99.90
26262;DHT22;13988;52.446;13.280;2022-09-09T01:46:00;13.60;99.90
26262;DHT22;13988;52.446;13.280;2022-09-09T01:48:27;13.60;99.90
26262;DHT22;13988;52.446;13.280;2022-09-09T01:50:53;13.60;99.90
26262;DHT22;13988;52.446;13.280;2022-09-09T01:53:20;13.50;99.90
26262;DHT22;13988;52.446;13.280;2022-09-09T01:55:58;13.60;99.90
26262;DHT22;13988;52.446;13.280;2022-09-09T01:58:33;13.60;99.90
26262;DHT22;13988;52.446;13.280;2022-09-09T02:03:51;13.50;99.90
26262;DHT22;13988;52.446;13.280;2022-09-09T02:08:57;13.50;99.90
26262;DHT22;13988;52.446;13.280;2022-09-09T02:11:27;13.60;99.90
26262;DHT22;13988;52.446;13.280;2022-09-09T02:14:05;13.50;99.90
26262;DHT22;13988;52.446;13.280;2022-09-09T02:19:27;13.40;99.90
26262;DHT22;13988;52.446;13.280;2022-09-09T02:21:57;13.30;99.90
26262;DHT22;13988;52.446;13.280;2022-09-09T02:24:26;13.30;99.90
26262;DHT22;13988;52.446;13.280;2022-09-09T02:26:54;13.20;99.90
26262;DHT22;13988;52.446;13.280;2022-09-09T02:29:26;13.20;99.90
26262;DHT22;13988;52.446;13.280;2022-09-09T02:31:53;13.20;99.90
26262;DHT22;13988;52.446;13.280;2022-09-09T02:34:23;13.30;99.90
26262;DHT22;13988;52.446;13.280;2022-09-09T02:36:51;13.20;99.90
26262;DHT22;13988;52.446;13.280;2022-09-09T02:39:19;13.20;99.90
26262;DHT22;13988;52.446;13.280;2022-09-09T02:41:44;13.20;99.90
26262;DHT22;13988;52.446;13.280;2022-09-09T02:44:12;13.30;99.90
26262;DHT22;13988;52.446;13.280;2022-09-09T02:52:01;13.40;99.90
26262;DHT22;13988;52.446;13.280;2022-09-09T02:54:28;13.30;99.90
26262;DHT22;13988;52.446;13.280;2022-09-09T02:59:30;13.20;99.90
26262;DHT22;13988;52.446;13.280;2022-09-09T03:01:56;13.30;99.90
26262;DHT22;13988;52.446;13.280;2022-09-09T03:04:22;13.20;99.90
26262;DHT22;13988;52.446;13.280;2022-09-09T03:06:50;13.10;99.90
26262;DHT22;13988;52.446;13.280;2022-09-09T03:09:15;13.00;99.90
26262;DHT22;13988;52.446;13.280;2022-09-09T03:11:41;13.00;99.90
26262;DHT22;13988;52.446;13.280;2022-09-09T03:14:06;13.00;99.90
26262;DHT22;13988;52.446;13.280;2022-09-09T03:16:32;13.00;99.90
26262;DHT22;13988;52.446;13.280;2022-09-09T03:19:00;13.10;99.90
26262;DHT22;13988;52.446;13.280;2022-09-09T03:21:26;13.10;99.90
26262;DHT22;13988;52.446;13.280;2022-09-09T03:23:51;13.10;99.90
26262;DHT22;13988;52.446;13.280;2022-09-09T03:26:17;13.10;99.90
26262;DHT22;13988;52.446;13.280;2022-09-09T03:28:43;13.10;99.90
26262;DHT22;13988;52.446;13.280;2022-09-09T03:31:10;13.00;99.90
26262;DHT22;13988;52.446;13.280;2022-09-09T03:33:37;13.10;99.90
26262;DHT22;13988;52.446;13.280;2022-09-09T03:36:03;13.10;99.90
26262;DHT22;13988;52.446;13.280;2022-09-09T03:38:29;13.00;99.90
26262;DHT22;13988;52.446;13.280;2022-09-09T03:40:56;13.00;99.90
26262;DHT22;13988;52.446;13.280;2022-09-09T03:43:26;13.10;99.90
26262;DHT22;13988;52.446;13.280;2022-09-09T03:45:52;13.00;99.90
26262;DHT22;13988;52.446;13.280;2022-09-09T03:48:19;13.00;99.90
26262;DHT22;13988;52.446;13.280;2022-09-09T03:50:50;12.90;99.90
26262;DHT22;13988;52.446;13.280;2022-09-09T03:53:17;12.90;99.90
26262;DHT22;13988;52.446;13.280;2022-09-09T03:55:52;12.80;99.90
26262;DHT22;13988;52.446;13.280;2022-09-09T03:58:20;12.80;99.90
26262;DHT22;13988;52.446;13.280;2022-09-09T04:00:56;12.70;99.90
26262;DHT22;13988;52.446;13.280;2022-09-09T04:03:23;12.70;99.90
26262;DHT22;13988;52.446;13.280;2022-09-09T04:05:51;12.70;99.90
26262;DHT22;13988;52.446;13.280;2022-09-09T04:08:17;12.70;99.90
26262;DHT22;13988;52.446;13.280;2022-09-09T04:10:48;12.80;99.90
26262;DHT22;13988;52.446;13.280;2022-09-09T04:13:15;12.60;99.90
26262;DHT22;13988;52.446;13.280;2022-09-09T04:15:42;12.70;99.90
26262;DHT22;13988;52.446;13.280;2022-09-09T04:18:09;12.80;99.90
26262;DHT22;13988;52.446;13.280;2022-09-09T04:20:34;12.80;99.90
26262;DHT22;13988;52.446;13.280;2022-09-09T04:23:00;12.90;99.90
26262;DHT22;13988;52.446;13.280;2022-09-09T04:25:26;12.90;99.90
26262;DHT22;13988;52.446;13.280;2022-09-09T04:27:56;12.80;99.90
26262;DHT22;13988;52.446;13.280;2022-09-09T04:30:22;12.80;99.90
26262;DHT22;13988;52.446;13.280;2022-09-09T04:32:48;12.80;99.90
26262;DHT22;13988;52.446;13.280;2022-09-09T04:35:14;12.70;99.90
26262;DHT22;13988;52.446;13.280;2022-09-09T04:37:39;12.80;99.90
26262;DHT22;13988;52.446;13.280;2022-09-09T04:40:05;12.70;99.90
26262;DHT22;13988;52.446;13.280;2022-09-09T04:42:35;12.60;99.90
26262;DHT22;13988;52.446;13.280;2022-09-09T04:45:01;12.70;99.90
26262;DHT22;13988;52.446;13.280;2022-09-09T04:47:27;12.70;99.90
26262;DHT22;13988;52.446;13.280;2022-09-09T04:49:52;12.80;99.90
26262;DHT22;13988;52.446;13.280;2022-09-09T04:52:20;12.90;99.90
26262;DHT22;13988;52.446;13.280;2022-09-09T04:54:45;12.90;99.90
26262;DHT22;13988;52.446;13.280;2022-09-09T04:57:11;12.80;99.90
26262;DHT22;13988;52.446;13.280;2022-09-09T04:59:37;12.80;99.90
26262;DHT22;13988;52.446;13.280;2022-09-09T05:02:04;12.90;99.90
26262;DHT22;13988;52.446;13.280;2022-09-09T05:04:30;13.00;99.90
26262;DHT22;13988;52.446;13.280;2022-09-09T05:06:56;13.00;99.90
26262;DHT22;13988;52.446;13.280;2022-09-09T05:09:22;13.20;99.90
26262;DHT22;13988;52.446;13.280;2022-09-09T05:11:47;13.10;99.90
26262;DHT22;13988;52.446;13.280;2022-09-09T05:14:14;13.10;99.90
26262;DHT22;13988;52.446;13.280;2022-09-09T05:16:40;13.10;99.90
26262;DHT22;13988;52.446;13.280;2022-09-09T05:19:06;13.10;99.90
26262;DHT22;13988;52.446;13.280;2022-09-09T05:21:33;13.10;99.90
26262;DHT22;13988;52.446;13.280;2022-09-09T05:23:59;13.10;99.90
26262;DHT22;13988;52.446;13.280;2022-09-09T05:26:25;13.20;99.90
26262;DHT22;13988;52.446;13.280;2022-09-09T05:28:51;13.30;99.90
26262;DHT22;13988;52.446;13.280;2022-09-09T05:31:18;13.20;99.90
26262;DHT22;13988;52.446;13.280;2022-09-09T05:33:46;13.30;99.90
26262;DHT22;13988;52.446;13.280;2022-09-09T05:36:16;13.30;99.90
26262;DHT22;13988;52.446;13.280;2022-09-09T05:38:43;13.40;99.90
26262;DHT22;13988;52.446;13.280;2022-09-09T05:41:10;13.40;99.90
26262;DHT22;13988;52.446;13.280;2022-09-09T05:43:41;13.40;99.90
26262;DHT22;13988;52.446;13.280;2022-09-09T05:46:10;13.50;99.90
26262;DHT22;13988;52.446;13.280;2022-09-09T05:48:38;13.60;99.90
26262;DHT22;13988;52.446;13.280;2022-09-09T05:51:06;13.70;99.90
26262;DHT22;13988;52.446;13.280;2022-09-09T05:53:32;13.80;99.90
26262;DHT22;13988;52.446;13.280;2022-09-09T05:56:17;13.90;99.90
26262;DHT22;13988;52.446;13.280;2022-09-09T05:58:43;13.90;99.90
26262;DHT22;13988;52.446;13.280;2022-09-09T06:03:46;16.10;99.90
26262;DHT22;13988;52.446;13.280;2022-09-09T06:06:17;18.50;99.90
26262;DHT22;13988;52.446;13.280;2022-09-09T06:08:44;19.70;99.90
26262;DHT22;13988;52.446;13.280;2022-09-09T06:11:15;21.10;99.90
26262;DHT22;13988;52.446;13.280;2022-09-09T06:13:41;20.20;99.90
26262;DHT22;13988;52.446;13.280;2022-09-09T06:16:09;17.90;99.90
26262;DHT22;13988;52.446;13.280;2022-09-09T06:18:37;17.30;99.90
26262;DHT22;13988;52.446;13.280;2022-09-09T06:21:05;16.80;99.90
26262;DHT22;13988;52.446;13.280;2022-09-09T06:23:35;16.40;99.90
26262;DHT22;13988;52.446;13.280;2022-09-09T06:26:21;16.50;99.90
26262;DHT22;13988;52.446;13.280;2022-09-09T06:28:49;16.20;99.90
26262;DHT22;13988;52.446;13.280;2022-09-09T06:31:18;15.80;99.90
26262;DHT22;13988;52.446;13.280;2022-09-09T06:33:49;15.40;99.90
26262;DHT22;13988;52.446;13.280;2022-09-09T06:36:17;15.10;99.90
26262;DHT22;13988;52.446;13.280;2022-09-09T06:38:44;15.10;99.90
26262;DHT22;13988;52.446;13.280;2022-09-09T06:41:11;15.30;99.90
26262;DHT22;13988;52.446;13.280;2022-09-09T06:43:37;15.30;99.90
26262;DHT22;13988;52.446;13.280;2022-09-09T06:46:32;15.40;99.90
26262;DHT22;13988;52.446;13.280;2022-09-09T06:48:59;15.40;99.90
26262;DHT22;13988;52.446;13.280;2022-09-09T06:51:27;15.50;99.90
26262;DHT22;13988;52.446;13.280;2022-09-09T06:53:55;15.50;99.90
26262;DHT22;13988;52.446;13.280;2022-09-09T06:56:27;15.60;99.90
26262;DHT22;13988;52.446;13.280;2022-09-09T06:58:54;15.80;99.90
26262;DHT22;13988;52.446;13.280;2022-09-09T07:01:22;15.70;99.90
26262;DHT22;13988;52.446;13.280;2022-09-09T07:03:53;15.70;99.90
26262;DHT22;13988;52.446;13.280;2022-09-09T07:06:24;15.90;99.90
26262;DHT22;13988;52.446;13.280;2022-09-09T07:08:58;16.00;99.90
26262;DHT22;13988;52.446;13.280;2022-09-09T07:11:26;16.20;99.90
26262;DHT22;13988;52.446;13.280;2022-09-09T07:13:52;16.30;99.90
26262;DHT22;13988;52.446;13.280;2022-09-09T07:16:20;16.30;99.90
26262;DHT22;13988;52.446;13.280;2022-09-09T07:18:46;16.40;99.90
26262;DHT22;13988;52.446;13.280;2022-09-09T07:21:13;16.30;99.90
26262;DHT22;13988;52.446;13.280;2022-09-09T07:23:40;16.50;99.90
26262;DHT22;13988;52.446;13.280;2022-09-09T07:26:14;16.60;99.90
26262;DHT22;13988;52.446;13.280;2022-09-09T07:28:41;16.90;99.90
26262;DHT22;13988;52.446;13.280;2022-09-09T07:31:13;17.00;99.90
26262;DHT22;13988;52.446;13.280;2022-09-09T07:33:41;17.10;99.90
26262;DHT22;13988;52.446;13.280;2022-09-09T07:36:09;17.20;99.90
26262;DHT22;13988;52.446;13.280;2022-09-09T07:38:46;17.20;99.90
26262;DHT22;13988;52.446;13.280;2022-09-09T07:41:15;17.40;99.90
26262;DHT22;13988;52.446;13.280;2022-09-09T07:43:44;17.50;99.90
26262;DHT22;13988;52.446;13.280;2022-09-09T07:46:12;17.40;99.90
26262;DHT22;13988;52.446;13.280;2022-09-09T07:48:44;17.70;99.90
26262;DHT22;13988;52.446;13.280;2022-09-09T07:51:15;17.90;99.90
26262;DHT22;13988;52.446;13.280;2022-09-09T07:53:46;18.20;99.90
26262;DHT22;13988;52.446;13.280;2022-09-09T07:56:14;18.30;99.90
26262;DHT22;13988;52.446;13.280;2022-09-09T07:58:44;18.20;99.90
26262;DHT22;13988;52.446;13.280;2022-09-09T08:01:22;18.10;99.90
26262;DHT22;13988;52.446;13.280;2022-09-09T08:03:54;18.00;99.90
26262;DHT22;13988;52.446;13.280;2022-09-09T08:06:20;18.00;99.90
26262;DHT22;13988;52.446;13.280;2022-09-09T08:08:50;18.00;99.90
26262;DHT22;13988;52.446;13.280;2022-09-09T08:11:17;18.00;99.90
26262;DHT22;13988;52.446;13.280;2022-09-09T08:13:43;18.20;99.90
26262;DHT22;13988;52.446;13.280;2022-09-09T08:16:15;18.00;99.90
26262;DHT22;13988;52.446;13.280;2022-09-09T08:18:41;18.10;99.90
26262;DHT22;13988;52.446;13.280;2022-09-09T08:21:11;18.10;99.90
26262;DHT22;13988;52.446;13.280;2022-09-09T08:23:41;17.90;99.90
26262;DHT22;13988;52.446;13.280;2022-09-09T08:26:12;18.00;99.90
26262;DHT22;13988;52.446;13.280;2022-09-09T08:28:39;18.00;99.90
26262;DHT22;13988;52.446;13.280;2022-09-09T08:31:10;18.00;99.90
26262;DHT22;13988;52.446;13.280;2022-09-09T08:33:37;18.10;99.90
26262;DHT22;13988;52.446;13.280;2022-09-09T08:36:04;18.20;99.90
26262;DHT22;13988;52.446;13.280;2022-09-09T08:38:30;18.30;99.90
26262;DHT22;13988;52.446;13.280;2022-09-09T08:41:17;18.30;99.90
26262;DHT22;13988;52.446;13.280;2022-09-09T08:43:48;18.40;99.90
26262;DHT22;13988;52.446;13.280;2022-09-09T08:46:28;18.50;99.90
26262;DHT22;13988;52.446;13.280;2022-09-09T08:49:18;18.40;99.90
26262;DHT22;13988;52.446;13.280;2022-09-09T08:51:44;18.40;99.90
26262;DHT22;13988;52.446;13.280;2022-09-09T08:54:10;18.50;99.90
26262;DHT22;13988;52.446;13.280;2022-09-09T08:56:36;18.50;99.90
26262;DHT22;13988;52.446;13.280;2022-09-09T08:59:03;18.40;99.90
26262;DHT22;13988;52.446;13.280;2022-09-09T09:04:42;18.40;99.90
26262;DHT22;13988;52.446;13.280;2022-09-09T09:07:32;18.80;99.90
26262;DHT22;13988;52.446;13.280;2022-09-09T09:10:09;18.90;99.90
26262;DHT22;13988;52.446;13.280;2022-09-09T09:12:40;19.20;99.90
26262;DHT22;13988;52.446;13.280;2022-09-09T09:15:22;19.10;99.90
26262;DHT22;13988;52.446;13.280;2022-09-09T09:17:48;19.10;99.90
26262;DHT22;13988;52.446;13.280;2022-09-09T09:20:15;19.30;99.90
26262;DHT22;13988;52.446;13.280;2022-09-09T09:22:52;19.30;99.90
26262;DHT22;13988;52.446;13.280;2022-09-09T09:28:16;19.40;99.90
26262;DHT22;13988;52.446;13.280;2022-09-09T09:30:52;19.30;99.90
26262;DHT22;13988;52.446;13.280;2022-09-09T09:35:49;19.20;99.90
26262;DHT22;13988;52.446;13.280;2022-09-09T09:38:21;19.40;99.90
26262;DHT22;13988;52.446;13.280;2022-09-09T09:40:56;19.20;99.90
26262;DHT22;13988;52.446;13.280;2022-09-09T09:45:55;19.50;99.90
26262;DHT22;13988;52.446;13.280;2022-09-09T09:48:23;19.50;99.90
26262;DHT22;13988;52.446;13.280;2022-09-09T09:50:50;19.40;99.90
26262;DHT22;13988;52.446;13.280;2022-09-09T09:53:37;19.50;99.90
26262;DHT22;13988;52.446;13.280;2022-09-09T10:01:28;19.30;99.90
26262;DHT22;13988;52.446;13.280;2022-09-09T10:04:03;19.40;99.90
26262;DHT22;13988;52.446;13.280;2022-09-09T10:06:38;19.50;99.90
26262;DHT22;13988;52.446;13.280;2022-09-09T10:09:30;19.60;99.90
26262;DHT22;13988;52.446;13.280;2022-09-09T10:17:36;20.30;99.90
26262;DHT22;13988;52.446;13.280;2022-09-09T10:20:14;20.30;99.90
26262;DHT22;13988;52.446;13.280;2022-09-09T10:22:51;20.40;99.90
26262;DHT22;13988;52.446;13.280;2022-09-09T10:28:33;20.20;99.90
26262;DHT22;13988;52.446;13.280;2022-09-09T10:36:24;20.50;99.90
26262;DHT22;13988;52.446;13.280;2022-09-09T10:39:03;20.50;99.90
26262;DHT22;13988;52.446;13.280;2022-09-09T10:41:51;20.60;99.90
26262;DHT22;13988;52.446;13.280;2022-09-09T10:48:10;20.60;99.90
26262;DHT22;13988;52.446;13.280;2022-09-09T10:50:52;21.00;99.90
26262;DHT22;13988;52.446;13.280;2022-09-09T10:56:16;20.90;99.90
26262;DHT22;13988;52.446;13.280;2022-09-09T10:59:04;21.10;99.90
26262;DHT22;13988;52.446;13.280;2022-09-09T11:01:47;21.10;99.90
26262;DHT22;13988;52.446;13.280;2022-09-09T11:04:35;21.20;99.90
26262;DHT22;13988;52.446;13.280;2022-09-09T11:07:08;21.40;99.90
26262;DHT22;13988;52.446;13.280;2022-09-09T11:09:40;21.80;99.90
26262;DHT22;13988;52.446;13.280;2022-09-09T11:12:12;21.60;99.90
26262;DHT22;13988;52.446;13.280;2022-09-09T11:14:50;21.80;99.90
26262;DHT22;13988;52.446;13.280;2022-09-09T11:17:23;21.90;99.90
26262;DHT22;13988;52.446;13.280;2022-09-09T11:19:50;21.90;99.90
26262;DHT22;13988;52.446;13.280;2022-09-09T11:24:55;22.60;99.90
26262;DHT22;13988;52.446;13.280;2022-09-09T11:28:01;23.00;99.90
26262;DHT22;13988;52.446;13.280;2022-09-09T11:38:46;22.60;99.90
26262;DHT22;13988;52.446;13.280;2022-09-09T11:41:17;21.90;99.90
26262;DHT22;13988;52.446;13.280;2022-09-09T11:43:51;21.80;99.90
26262;DHT22;13988;52.446;13.280;2022-09-09T11:46:21;22.20;99.90
26262;DHT22;13988;52.446;13.280;2022-09-09T11:49:30;23.20;99.90
26262;DHT22;13988;52.446;13.280;2022-09-09T11:52:42;25.10;99.90
26262;DHT22;13988;52.446;13.280;2022-09-09T11:55:34;26.00;99.90
26262;DHT22;13988;52.446;13.280;2022-09-09T12:00:44;26.90;99.90
26262;DHT22;13988;52.446;13.280;2022-09-09T12:09:12;29.00;98.50
26262;DHT22;13988;52.446;13.280;2022-09-09T12:11:41;30.10;93.40
26262;DHT22;13988;52.446;13.280;2022-09-09T12:14:38;28.20;84.70
26262;DHT22;13988;52.446;13.280;2022-09-09T12:17:20;28.80;91.70
26262;DHT22;13988;52.446;13.280;2022-09-09T12:19:47;28.30;89.20
26262;DHT22;13988;52.446;13.280;2022-09-09T12:25:48;26.20;94.90
26262;DHT22;13988;52.446;13.280;2022-09-09T12:28:40;25.00;94.20
26262;DHT22;13988;52.446;13.280;2022-09-09T12:31:39;23.80;95.10
26262;DHT22;13988;52.446;13.280;2022-09-09T12:34:15;23.60;99.10
26262;DHT22;13988;52.446;13.280;2022-09-09T12:36:44;23.70;99.90
26262;DHT22;13988;52.446;13.280;2022-09-09T12:39:29;23.40;99.90
26262;DHT22;13988;52.446;13.280;2022-09-09T12:41:56;23.30;99.90
26262;DHT22;13988;52.446;13.280;2022-09-09T12:44:24;23.20;99.90
26262;DHT22;13988;52.446;13.280;2022-09-09T12:46:51;23.10;99.90
26262;DHT22;13988;52.446;13.280;2022-09-09T12:49:37;23.20;99.90
26262;DHT22;13988;52.446;13.280;2022-09-09T12:52:08;23.20;99.90
26262;DHT22;13988;52.446;13.280;2022-09-09T12:54:36;23.20;99.90
26262;DHT22;13988;52.446;13.280;2022-09-09T12:57:03;23.10;99.90
26262;DHT22;13988;52.446;13.280;2022-09-09T12:59:38;23.00;99.90
26262;DHT22;13988;52.446;13.280;2022-09-09T13:02:25;22.80;99.90
26262;DHT22;13988;52.446;13.280;2022-09-09T13:04:52;22.70;99.90
26262;DHT22;13988;52.446;13.280;2022-09-09T13:07:18;22.60;99.90
26262;DHT22;13988;52.446;13.280;2022-09-09T13:09:45;22.50;99.90
26262;DHT22;13988;52.446;13.280;2022-09-09T13:12:16;22.40;99.90
26262;DHT22;13988;52.446;13.280;2022-09-09T13:14:46;22.40;99.90
26262;DHT22;13988;52.446;13.280;2022-09-09T13:17:22;22.20;99.90
26262;DHT22;13988;52.446;13.280;2022-09-09T13:19:48;22.20;99.90
26262;DHT22;13988;52.446;13.280;2022-09-09T13:22:33;22.20;99.90
26262;DHT22;13988;52.446;13.280;2022-09-09T13:25:26;22.30;99.90
26262;DHT22;13988;52.446;13.280;2022-09-09T13:28:03;22.50;99.90
26262;DHT22;13988;52.446;13.280;2022-09-09T13:30:31;22.70;99.90
26262;DHT22;13988;52.446;13.280;2022-09-09T13:35:49;24.70;99.90
26262;DHT22;13988;52.446;13.280;2022-09-09T13:38:16;25.30;99.90
26262;DHT22;13988;52.446;13.280;2022-09-09T13:40:56;24.70;99.90
26262;DHT22;13988;52.446;13.280;2022-09-09T13:43:23;24.80;99.90
26262;DHT22;13988;52.446;13.280;2022-09-09T13:45:57;24.10;99.90
26262;DHT22;13988;52.446;13.280;2022-09-09T13:48:24;23.50;99.90
26262;DHT22;13988;52.446;13.280;2022-09-09T13:50:58;23.30;99.90
26262;DHT22;13988;52.446;13.280;2022-09-09T13:53:24;22.80;99.90
26262;DHT22;13988;52.446;13.280;2022-09-09T13:55:50;22.90;99.90
26262;DHT22;13988;52.446;13.280;2022-09-09T13:58:17;23.40;99.90
26262;DHT22;13988;52.446;13.280;2022-09-09T14:00:48;23.90;99.90
26262;DHT22;13988;52.446;13.280;2022-09-09T14:03:13;25.00;99.90
26262;DHT22;13988;52.446;13.280;2022-09-09T14:05:39;24.70;99.90
26262;DHT22;13988;52.446;13.280;2022-09-09T14:08:06;24.80;99.90
26262;DHT22;13988;52.446;13.280;2022-09-09T14:10:32;23.70;99.90
26262;DHT22;13988;52.446;13.280;2022-09-09T14:13:01;23.60;99.90
26262;DHT22;13988;52.446;13.280;2022-09-09T14:15:26;23.80;99.90
26262;DHT22;13988;52.446;13.280;2022-09-09T14:17:52;22.90;99.90
26262;DHT22;13988;52.446;13.280;2022-09-09T14:20:18;22.80;99.90
26262;DHT22;13988;52.446;13.280;2022-09-09T14:22:44;24.70;99.90
26262;DHT22;13988;52.446;13.280;2022-09-09T14:25:10;24.60;99.90
26262;DHT22;13988;52.446;13.280;2022-09-09T14:27:36;23.50;99.90
26262;DHT22;13988;52.446;13.280;2022-09-09T14:30:04;22.90;99.90
26262;DHT22;13988;52.446;13.280;2022-09-09T14:32:29;22.40;99.90
26262;DHT22;13988;52.446;13.280;2022-09-09T14:34:55;22.40;99.90
26262;DHT22;13988;52.446;13.280;2022-09-09T14:37:21;22.30;99.90
26262;DHT22;13988;52.446;13.280;2022-09-09T14:39:46;22.40;99.90
26262;DHT22;13988;52.446;13.280;2022-09-09T14:42:13;22.40;99.90
26262;DHT22;13988;52.446;13.280;2022-09-09T14:44:39;22.20;99.90
26262;DHT22;13988;52.446;13.280;2022-09-09T14:47:06;22.10;99.90
26262;DHT22;13988;52.446;13.280;2022-09-09T14:49:33;22.00;99.90
26262;DHT22;13988;52.446;13.280;2022-09-09T14:51:59;21.90;99.90
26262;DHT22;13988;52.446;13.280;2022-09-09T14:54:25;22.00;99.90
26262;DHT22;13988;52.446;13.280;2022-09-09T14:56:50;22.10;99.90
26262;DHT22;13988;52.446;13.280;2022-09-09T14:59:16;22.00;99.90
26262;DHT22;13988;52.446;13.280;2022-09-09T15:01:41;22.00;99.90
26262;DHT22;13988;52.446;13.280;2022-09-09T15:04:07;22.20;99.90
26262;DHT22;13988;52.446;13.280;2022-09-09T15:06:34;22.30;99.90
26262;DHT22;13988;52.446;13.280;2022-09-09T15:09:01;22.30;99.90
26262;DHT22;13988;52.446;13.280;2022-09-09T15:11:29;22.30;99.90
26262;DHT22;13988;52.446;13.280;2022-09-09T15:13:59;22.30;99.90
26262;DHT22;13988;52.446;13.280;2022-09-09T15:16:27;22.20;99.90
26262;DHT22;13988;52.446;13.280;2022-09-09T15:18:55;22.10;99.90
26262;DHT22;13988;52.446;13.280;2022-09-09T15:21:24;22.20;99.90
26262;DHT22;13988;52.446;13.280;2022-09-09T15:23:50;22.50;99.90
26262;DHT22;13988;52.446;13.280;2022-09-09T15:26:17;22.40;99.90
26262;DHT22;13988;52.446;13.280;2022-09-09T15:28:44;22.40;99.90
26262;DHT22;13988;52.446;13.280;2022-09-09T15:33:50;22.10;99.90
26262;DHT22;13988;52.446;13.280;2022-09-09T15:36:26;22.10;99.90
26262;DHT22;13988;52.446;13.280;2022-09-09T15:38:52;21.90;99.90
26262;DHT22;13988;52.446;13.280;2022-09-09T15:41:19;22.00;99.90
26262;DHT22;13988;52.446;13.280;2022-09-09T15:43:46;22.00;99.90
26262;DHT22;13988;52.446;13.280;2022-09-09T15:48:56;22.00;99.90
26262;DHT22;13988;52.446;13.280;2022-09-09T15:51:22;22.20;99.90
26262;DHT22;13988;52.446;13.280;2022-09-09T15:53:52;22.20;99.90
26262;DHT22;13988;52.446;13.280;2022-09-09T15:56:18;22.00;99.90
26262;DHT22;13988;52.446;13.280;2022-09-09T15:58:44;22.20;99.90
26262;DHT22;13988;52.446;13.280;2022-09-09T16:01:10;22.10;99.90
26262;DHT22;13988;52.446;13.280;2022-09-09T16:03:42;22.00;99.90
26262;DHT22;13988;52.446;13.280;2022-09-09T16:06:08;21.80;99.90
26262;DHT22;13988;52.446;13.280;2022-09-09T16:08:53;21.70;99.90
26262;DHT22;13988;52.446;13.280;2022-09-09T16:11:27;21.60;99.90
26262;DHT22;13988;52.446;13.280;2022-09-09T16:13:54;21.50;99.90
26262;DHT22;13988;52.446;13.280;2022-09-09T16:16:22;21.60;99.90
26262;DHT22;13988;52.446;13.280;2022-09-09T16:18:54;21.50;99.90
26262;DHT22;13988;52.446;13.280;2022-09-09T16:21:23;21.30;99.90
26262;DHT22;13988;52.446;13.280;2022-09-09T16:23:50;21.20;99.90
26262;DHT22;13988;52.446;13.280;2022-09-09T16:26:17;21.20;99.90
26262;DHT22;13988;52.446;13.280;2022-09-09T16:28:43;21.20;99.90
26262;DHT22;13988;52.446;13.280;2022-09-09T16:31:11;21.20;99.90
26262;DHT22;13988;52.446;13.280;2022-09-09T16:33:39;21.10;99.90
26262;DHT22;13988;52.446;13.280;2022-09-09T16:36:16;21.10;99.90
26262;DHT22;13988;52.446;13.280;2022-09-09T16:38:43;21.10;99.90
26262;DHT22;13988;52.446;13.280;2022-09-09T16:41:09;21.10;99.90
26262;DHT22;13988;52.446;13.280;2022-09-09T16:43:36;20.90;99.90
26262;DHT22;13988;52.446;13.280;2022-09-09T16:46:03;20.70;99.90
26262;DHT22;13988;52.446;13.280;2022-09-09T16:48:36;20.70;99.90
26262;DHT22;13988;52.446;13.280;2022-09-09T16:51:07;20.80;99.90
26262;DHT22;13988;52.446;13.280;2022-09-09T16:53:35;20.70;99.90
26262;DHT22;13988;52.446;13.280;2022-09-09T16:56:05;20.50;99.90
26262;DHT22;13988;52.446;13.280;2022-09-09T16:58:31;20.30;99.90
26262;DHT22;13988;52.446;13.280;2022-09-09T17:01:01;20.30;99.90
26262;DHT22;13988;52.446;13.280;2022-09-09T17:03:30;20.20;99.90
26262;DHT22;13988;52.446;13.280;2022-09-09T17:05:59;20.30;99.90
26262;DHT22;13988;52.446;13.280;2022-09-09T17:08:29;20.10;99.90
26262;DHT22;13988;52.446;13.280;2022-09-09T17:10:55;20.00;99.90
26262;DHT22;13988;52.446;13.280;2022-09-09T17:13:20;19.90;99.90
26262;DHT22;13988;52.446;13.280;2022-09-09T17:15:46;19.90;99.90
26262;DHT22;13988;52.446;13.280;2022-09-09T17:18:12;19.90;99.90
26262;DHT22;13988;52.446;13.280;2022-09-09T17:20:41;19.70;99.90
26262;DHT22;13988;52.446;13.280;2022-09-09T17:23:08;19.80;99.90
26262;DHT22;13988;52.446;13.280;2022-09-09T17:25:35;19.70;99.90
26262;DHT22;13988;52.446;13.280;2022-09-09T17:28:02;19.80;99.90
26262;DHT22;13988;52.446;13.280;2022-09-09T17:30:33;19.50;99.90